»·PEaware :: BOE561 KLGB-KSLC

BOE561 :: KLGB-KSLC

FLIGHT INFORMATION

Flight Status: Arrived
Operator:
Boeing Commercial Airplane Group
More flights by this operator :: More flights under this callsign
Pilot: Ben F. (2808)
Aircraft: BOEING 737-200
(B732)
More flights by this aircraft type
Origin: KLGB Long Beach
United States
Destination: KSLC Salt Lake City Intl
United States
More flights between these airports :: More routes between these airports
Route: +PMD DAG LAS MLF JAMMN5
File this flight plan on PilotEdge
Remarks:
Altitude:
(Current/Filed)
33,000ft
Speed:
(Current/Filed)
435kts
Departed: 30-Mar-18 05:56 PM
Arrived: 30-Mar-18 07:26 PM
Distance/Time
Traveled:
511nm/1:30
Distance/Time
To Go:
Arrived

Flight Plot

Page will automatically refresh every two minutes.

Flight plan parsing failed; only flown route is shown


Map Options




Map Legend


Flown Route
Filed Route
Departure Airport
Arrival Airport
Navaid (VOR, NDB)
Fix

Horizontal Profiles

Position Reports

Time Latitude Longitude Heading Altitude Ground
Speed
30-Mar-18 17:39 33.812401 -118.150816 89 69ft 0kts
30-Mar-18 17:40 33.812401 -118.150816 89 69ft 0kts
30-Mar-18 17:41 33.812401 -118.150816 89 69ft 0kts
30-Mar-18 17:42 33.812401 -118.150816 89 69ft 0kts
30-Mar-18 17:43 33.812401 -118.150816 89 69ft 0kts
30-Mar-18 17:44 33.812401 -118.150816 89 69ft 0kts
30-Mar-18 17:45 33.812401 -118.150816 89 69ft 0kts
30-Mar-18 17:46 33.812401 -118.150816 89 69ft 0kts
30-Mar-18 17:47 33.812401 -118.150816 89 69ft 0kts
30-Mar-18 17:48 33.812401 -118.150816 89 69ft 0kts
30-Mar-18 17:49 33.812401 -118.150816 89 69ft 0kts
30-Mar-18 17:50 33.812602 -118.150575 27 69ft 0kts
30-Mar-18 17:51 33.813123 -118.149559 91 69ft 12kts
30-Mar-18 17:52 33.809859 -118.143334 133 69ft 26kts
30-Mar-18 17:53 33.806552 -118.139265 120 69ft 0kts
30-Mar-18 17:54 33.807598 -118.139008 315 69ft 12kts
30-Mar-18 17:55 33.825456 -118.159134 319 654ft 170kts
30-Mar-18 17:56 33.840697 -118.206128 280 3054ft 207kts
30-Mar-18 17:57 33.857788 -118.281258 298 5143ft 284kts
30-Mar-18 17:58 33.913526 -118.321317 8 8824ft 277kts
30-Mar-18 17:59 33.984859 -118.301571 16 10981ft 306kts
30-Mar-18 18:00 34.056203 -118.251093 53 12773ft 336kts
30-Mar-18 18:01 34.108942 -118.166766 52 14797ft 346kts
30-Mar-18 18:02 34.163740 -118.078354 51 16630ft 355kts
30-Mar-18 18:03 34.222314 -117.982698 51 18309ft 365kts
30-Mar-18 18:04 34.282088 -117.882837 55 19802ft 376kts
30-Mar-18 18:05 34.338848 -117.775812 54 21122ft 385kts
30-Mar-18 18:06 34.396969 -117.666259 54 22269ft 394kts
30-Mar-18 18:07 34.456073 -117.554440 54 23290ft 402kts
30-Mar-18 18:08 34.516000 -117.440828 54 24220ft 409kts
30-Mar-18 18:09 34.575717 -117.327180 55 25046ft 415kts
30-Mar-18 18:10 34.636962 -117.210320 55 25784ft 421kts
30-Mar-18 18:11 34.699848 -117.089882 55 26446ft 427kts
30-Mar-18 18:12 34.763780 -116.967167 55 26955ft 435kts
30-Mar-18 18:13 34.821286 -116.856343 55 27407ft 441kts
30-Mar-18 18:14 34.884140 -116.734854 55 27946ft 445kts
30-Mar-18 18:15 34.948812 -116.606884 56 28507ft 447kts
30-Mar-18 18:16 35.028100 -116.492573 43 29058ft 444kts
30-Mar-18 18:17 35.107727 -116.384894 43 29586ft 444kts
30-Mar-18 18:18 35.185291 -116.281109 43 30168ft 443kts
30-Mar-18 18:19 35.263762 -116.176341 43 30675ft 444kts
30-Mar-18 18:20 35.347416 -116.065492 41 31229ft 443kts
30-Mar-18 18:21 35.432788 -115.957023 41 31757ft 442kts
30-Mar-18 18:22 35.518138 -115.849020 41 32226ft 443kts
30-Mar-18 18:23 35.603236 -115.740980 41 32733ft 443kts
30-Mar-18 18:24 35.688073 -115.632928 40 33103ft 446kts
30-Mar-18 18:25 35.774968 -115.521885 41 33107ft 457kts
30-Mar-18 18:26 35.862748 -115.409333 41 33105ft 466kts
30-Mar-18 18:27 35.948998 -115.298403 41 33086ft 471kts
30-Mar-18 18:28 36.036906 -115.184896 41 33089ft 465kts
30-Mar-18 18:29 36.130272 -115.092607 30 33067ft 454kts
30-Mar-18 18:30 36.223894 -115.007385 30 33052ft 453kts
30-Mar-18 18:31 36.322463 -114.917583 30 33046ft 451kts
30-Mar-18 18:32 36.422787 -114.825836 30 33047ft 450kts
30-Mar-18 18:33 36.522927 -114.734032 30 33047ft 449kts
30-Mar-18 18:34 36.622551 -114.642376 29 33047ft 448kts
30-Mar-18 18:35 36.721638 -114.550957 30 33049ft 449kts
30-Mar-18 18:36 36.821494 -114.458395 30 33052ft 451kts
30-Mar-18 18:37 36.921737 -114.365279 30 33076ft 453kts
30-Mar-18 18:38 37.018435 -114.275132 30 33091ft 451kts
30-Mar-18 18:39 37.113971 -114.185766 29 33107ft 449kts
30-Mar-18 18:40 37.212400 -114.093461 29 33109ft 449kts
30-Mar-18 18:41 37.312206 -113.999498 29 33111ft 452kts
30-Mar-18 18:42 37.412539 -113.904712 29 33112ft 455kts
30-Mar-18 18:43 37.512740 -113.809725 29 33111ft 458kts
30-Mar-18 18:44 37.613809 -113.713571 29 33123ft 459kts
30-Mar-18 18:45 37.715112 -113.616857 29 33173ft 460kts
30-Mar-18 18:46 37.815885 -113.520314 29 33186ft 461kts
30-Mar-18 18:47 37.913629 -113.426352 29 33188ft 463kts
30-Mar-18 18:48 38.011644 -113.331490 30 33175ft 465kts
30-Mar-18 18:49 38.108050 -113.236312 30 33174ft 464kts
30-Mar-18 18:50 38.206565 -113.138578 30 33167ft 456kts
30-Mar-18 18:51 38.306025 -113.041269 29 33165ft 455kts
30-Mar-18 18:52 38.413614 -112.969125 16 33166ft 439kts
30-Mar-18 18:53 38.524229 -112.908448 14 33165ft 434kts
30-Mar-18 18:54 38.634128 -112.849575 14 33164ft 429kts
30-Mar-18 18:55 38.742076 -112.791658 14 33164ft 424kts
30-Mar-18 18:56 38.850000 -112.733568 14 33164ft 422kts
30-Mar-18 18:57 38.957445 -112.675513 13 33164ft 422kts
30-Mar-18 18:58 39.064712 -112.617407 12 33164ft 422kts
30-Mar-18 18:59 39.159979 -112.565689 12 33175ft 423kts
30-Mar-18 19:00 39.244510 -112.519718 12 32435ft 430kts
30-Mar-18 19:01 39.356430 -112.475938 4 30510ft 430kts
30-Mar-18 19:02 39.469107 -112.438930 5 28630ft 412kts
30-Mar-18 19:03 39.576482 -112.403491 5 26057ft 404kts
30-Mar-18 19:04 39.681231 -112.368774 7 22178ft 390kts
30-Mar-18 19:05 39.778319 -112.336489 8 19421ft 376kts
30-Mar-18 19:06 39.875871 -112.304163 9 17276ft 365kts
30-Mar-18 19:07 39.972280 -112.272145 9 17015ft 364kts
30-Mar-18 19:08 40.069963 -112.239482 9 17014ft 370kts
30-Mar-18 19:09 40.158985 -112.209478 9 15903ft 358kts
30-Mar-18 19:10 40.251173 -112.178414 10 13969ft 343kts
30-Mar-18 19:11 40.341230 -112.147906 10 13022ft 335kts
30-Mar-18 19:12 40.429696 -112.117852 10 13008ft 334kts
30-Mar-18 19:13 40.516073 -112.088292 10 12998ft 333kts
30-Mar-18 19:14 40.596428 -112.061953 0 12987ft 328kts
30-Mar-18 19:15 40.680934 -112.068277 351 12999ft 323kts
30-Mar-18 19:16 40.763940 -112.078641 350 12017ft 303kts
30-Mar-18 19:17 40.840019 -112.089533 350 10513ft 265kts
30-Mar-18 19:18 40.908884 -112.100796 350 8750ft 253kts
30-Mar-18 19:19 40.976746 -112.090007 49 7043ft 274kts
30-Mar-18 19:20 40.964928 -112.011127 141 6275ft 235kts
30-Mar-18 19:21 40.918092 -111.966643 156 5965ft 184kts
30-Mar-18 19:22 40.878330 -111.962178 182 5937ft 145kts
30-Mar-18 19:23 40.840335 -111.961978 185 5037ft 149kts
30-Mar-18 19:24 40.803282 -111.962056 180 4330ft 140kts
30-Mar-18 19:25 40.782507 -111.961870 134 4236ft 4kts
30-Mar-18 19:26 40.782394 -111.960423 90 4236ft 3kts
30-Mar-18 19:27 40.779358 -111.960005 180 4236ft 12kts
30-Mar-18 19:28 40.779013 -111.958512 187 4236ft 0kts
30-Mar-18 19:29 40.779013 -111.958512 187 4236ft 0kts

Navigation Log

Ident Type
Flight plan parsing failed, navigation log unavailable